createdAt,value
2023-03-23T18:02:55.516Z,100050.72
2023-03-23T18:07:48.028Z,100089.88
2023-03-23T18:13:00.198Z,100078.47
2023-03-23T18:18:07.843Z,100097.00
2023-03-23T18:35:01.153Z,100031.38
2023-03-23T18:40:05.533Z,100033.50
2023-03-23T18:56:30.106Z,100002.50
2023-03-23T19:01:32.111Z,100045.03
2023-03-23T19:06:34.584Z,100053.91
2023-03-23T19:11:36.150Z,100067.91
2023-03-23T19:17:11.433Z,100068.41
2023-03-23T19:22:15.357Z,100021.28
2023-03-23T19:34:16.940Z,100058.66
2023-03-23T19:39:23.282Z,100054.81
2023-03-23T19:44:26.353Z,100050.59
2023-03-23T19:49:33.496Z,100019.44
2023-03-23T19:54:44.664Z,99959.03
2023-03-23T19:59:52.465Z,99956.31
2023-03-23T20:05:08.694Z,99934.69
2023-03-23T20:10:10.547Z,99940.91
2023-03-23T20:15:12.328Z,99986.22
2023-03-23T20:20:16.611Z,99987.25
2023-03-23T20:55:06.048Z,99823.31
2023-03-23T21:18:36.519Z,99850.44
2023-03-23T21:46:24.844Z,99774.84
2023-03-23T21:51:28.526Z,99775.84
2023-03-23T21:56:30.561Z,99729.28
2023-03-23T22:01:53.720Z,99772.50
2023-03-23T22:06:57.384Z,99772.59
2023-03-23T22:12:12.814Z,99726.34
2023-03-23T22:17:31.037Z,99721.78
2023-03-23T22:23:00.147Z,99747.84
2023-03-23T22:28:19.603Z,99678.38
2023-03-23T22:33:38.653Z,99703.22
2023-03-23T22:38:50.077Z,99708.22
2023-03-23T22:43:52.343Z,99695.03
2023-03-23T22:48:59.403Z,99667.06
2023-03-23T22:54:01.039Z,99648.03
2023-03-23T22:59:14.017Z,99669.00
2023-03-23T23:04:15.647Z,99688.22
2023-03-23T23:09:18.153Z,99679.66
2023-03-23T23:14:19.977Z,99673.75
2023-03-23T23:19:21.569Z,99640.47
2023-03-23T23:24:25.374Z,99642.41
2023-03-23T23:29:47.500Z,99618.66
2023-03-23T23:34:49.035Z,99632.97
2023-03-23T23:40:00.287Z,99627.94
2023-03-23T23:45:23.194Z,99619.75
2023-03-23T23:55:53.403Z,99522.63
